Time;durP1;ratioP1;P1;durP2;ratioP2;P2;SDS_P1;SDS_P2;PMS_P1;PMS_P2;Temp;Humidity;BMP_temperature;BMP_pressure;BME280_temperature;BME280_humidity;BME280_pressure;Samples;Min_cycle;Max_cycle;Signal;HPM_P1;HPM_P2
2020/12/23 00:01:16;;;;;;;113.50;60.85;;;;;;;9.78;62.05;94473.06;4989797;28;20157;-82
2020/12/23 00:03:42;;;;;;;127.50;71.53;;;;;;;9.78;62.21;94478.34;4987409;28;20032;-82
2020/12/23 00:06:07;;;;;;;118.88;68.15;;;;;;;9.83;61.97;94480.97;4991036;28;20029;-82
2020/12/23 00:08:34;;;;;;;121.45;69.95;;;;;;;9.84;61.88;94483.38;4987614;28;20112;-82
2020/12/23 00:10:59;;;;;;;130.75;71.72;;;;;;;9.77;62.12;94464.38;4986170;28;20034;-81
2020/12/23 00:13:25;;;;;;;143.65;76.93;;;;;;;9.69;62.09;94464.91;4987772;28;20037;-82
2020/12/23 00:15:50;;;;;;;194.05;103.25;;;;;;;9.56;61.77;94455.69;4988435;28;20453;-82
2020/12/23 00:18:16;;;;;;;178.82;95.53;;;;;;;9.65;62.23;94479.69;4989776;28;20034;-82
2020/12/23 00:20:41;;;;;;;141.30;77.47;;;;;;;9.70;62.18;94489.44;4982296;28;20461;-82
2020/12/23 00:23:07;;;;;;;124.47;69.05;;;;;;;9.59;62.21;94467.56;4981551;28;20041;-83
2020/12/23 00:25:32;;;;;;;143.95;75.00;;;;;;;9.65;62.07;94476.25;4987154;28;20057;-82
2020/12/23 00:27:58;;;;;;;148.95;82.82;;;;;;;9.67;62.30;94482.09;4985091;28;20092;-82
2020/12/23 00:30:23;;;;;;;145.70;76.15;;;;;;;9.45;62.55;94451.47;4990100;28;20026;-80
2020/12/23 00:32:49;;;;;;;103.75;59.47;;;;;;;9.56;62.45;94460.97;4986957;28;20034;-82
2020/12/23 00:35:14;;;;;;;122.03;63.08;;;;;;;9.57;62.17;94467.84;4990315;28;20129;-82
2020/12/23 00:37:40;;;;;;;97.85;53.53;;;;;;;9.70;62.41;94476.25;4987902;28;20043;-82
2020/12/23 00:40:05;;;;;;;150.25;73.97;;;;;;;9.65;62.18;94468.34;4989392;28;20210;-82
2020/12/23 00:42:31;;;;;;;162.85;79.35;;;;;;;9.57;62.24;94462.56;4988904;28;20033;-82
2020/12/23 00:44:58;;;;;;;106.97;53.72;;;;;;;9.75;62.74;94478.88;4996242;28;20461;-80
2020/12/23 00:47:24;;;;;;;111.00;59.72;;;;;;;9.70;62.44;94479.69;4991684;28;20064;-82
2020/12/23 00:49:50;;;;;;;100.72;57.47;;;;;;;9.74;62.55;94482.59;4988051;28;20050;-82
2020/12/23 00:52:15;;;;;;;111.68;61.50;;;;;;;9.63;62.41;94459.91;4991286;28;20042;-82
2020/12/23 00:54:41;;;;;;;105.75;57.15;;;;;;;9.69;62.36;94464.13;4988212;28;20032;-82
2020/12/23 00:57:07;;;;;;;94.63;51.83;;;;;;;9.75;62.22;94479.69;5005327;28;20040;-82
2020/12/23 00:59:32;;;;;;;94.18;49.92;;;;;;;9.65;62.50;94455.94;4987870;28;20043;-82
2020/12/23 01:01:59;;;;;;;101.78;55.20;;;;;;;9.56;63.01;94449.63;4989167;28;20407;-82
2020/12/23 01:04:26;;;;;;;89.13;49.30;;;;;;;9.64;62.19;94454.34;4990536;28;20137;-82
2020/12/23 01:06:52;;;;;;;99.47;54.60;;;;;;;9.50;62.42;94451.47;4992032;28;20034;-82
2020/12/23 01:09:18;;;;;;;97.18;51.08;;;;;;;9.67;62.63;94472.31;4996444;28;20030;-82
2020/12/23 01:11:44;;;;;;;96.97;53.45;;;;;;;9.55;62.50;94442.75;4991188;28;20042;-82
2020/12/23 01:14:09;;;;;;;106.47;53.45;;;;;;;9.62;62.23;94451.22;4990131;28;20046;-82
2020/12/23 01:16:35;;;;;;;98.03;53.33;;;;;;;9.52;62.60;94427.47;4985900;28;20069;-83
2020/12/23 01:19:01;;;;;;;100.55;55.97;;;;;;;9.69;62.54;94453.56;4978166;28;20067;-82
2020/12/23 01:21:26;;;;;;;98.65;50.42;;;;;;;9.57;62.83;94438.03;4978451;28;20018;-81
2020/12/23 01:23:52;;;;;;;99.28;54.60;;;;;;;9.49;62.65;94438.53;4993987;28;20052;-82
2020/12/23 01:26:17;;;;;;;106.55;59.08;;;;;;;9.59;62.43;94462.28;4992472;28;20532;-82
2020/12/23 01:28:46;;;;;;;103.57;56.65;;;;;;;9.64;62.49;94472.81;4990972;28;20041;-82
2020/12/23 01:31:12;;;;;;;99.25;56.88;;;;;;;9.54;62.62;94459.66;4976549;28;20034;-82
2020/12/23 01:33:37;;;;;;;100.85;57.45;;;;;;;9.63;62.77;94470.47;4980520;28;20026;-82
2020/12/23 01:36:03;;;;;;;124.05;67.07;;;;;;;9.43;63.08;94442.25;4994367;28;20025;-82
2020/12/23 01:38:29;;;;;;;114.03;63.25;;;;;;;9.51;63.00;94468.09;4998763;28;20439;-82
2020/12/23 01:40:59;;;;;;;110.63;63.50;;;;;;;9.40;63.14;94450.69;5006596;28;20041;-82
2020/12/23 01:43:26;;;;;;;110.30;61.28;;;;;;;9.39;63.08;94443.81;4990981;28;20041;-82
2020/12/23 01:45:51;;;;;;;116.07;64.30;;;;;;;9.41;63.35;94441.72;4992293;28;20457;-82
2020/12/23 01:48:20;;;;;;;126.10;71.25;;;;;;;9.30;63.49;94429.59;4993999;28;20026;-81
2020/12/23 01:50:46;;;;;;;129.68;70.03;;;;;;;9.19;63.74;94412.97;4994882;28;20129;-81
2020/12/23 01:53:12;;;;;;;130.52;68.10;;;;;;;9.25;63.74;94411.13;4989014;28;20041;-81
2020/12/23 01:55:39;;;;;;;116.80;63.25;;;;;;;9.24;63.64;94409.53;4991299;28;20288;-82
2020/12/23 01:58:04;;;;;;;120.50;62.70;;;;;;;9.38;63.76;94419.28;4990629;28;20054;-82
2020/12/23 02:00:30;;;;;;;116.93;63.35;;;;;;;9.37;63.70;94411.66;4991469;28;20029;-82
2020/12/23 02:02:58;;;;;;;118.28;62.30;;;;;;;9.25;63.67;94400.56;4995269;28;20053;-82
2020/12/23 02:05:24;;;;;;;122.45;63.20;;;;;;;9.29;63.83;94404.25;4988916;28;20053;-82
2020/12/23 02:07:50;;;;;;;113.25;61.28;;;;;;;9.35;63.85;94416.41;4980850;28;20042;-82
2020/12/23 02:10:16;;;;;;;113.28;61.28;;;;;;;9.22;63.91;94407.19;4982613;28;20084;-82
2020/12/23 02:12:41;;;;;;;126.95;61.78;;;;;;;9.25;63.74;94401.38;4989092;28;20405;-82
2020/12/23 02:15:16;;;;;;;131.65;61.92;;;;;;;9.42;63.61;94411.66;4992533;28;20274;-82
2020/12/23 02:17:42;;;;;;;121.90;65.78;;;;;;;9.45;63.49;94421.66;4994770;28;20260;-82
2020/12/23 02:20:10;;;;;;;115.82;62.00;;;;;;;9.47;63.51;94422.19;4987957;28;20491;-82
2020/12/23 02:22:39;;;;;;;119.20;63.03;;;;;;;9.49;63.43;94409.53;4987994;28;20029;-82
2020/12/23 02:25:05;;;;;;;120.45;63.80;;;;;;;9.52;63.46;94416.91;5006154;28;20042;-82
2020/12/23 02:27:31;;;;;;;123.60;62.70;;;;;;;9.54;63.19;94401.59;4990930;28;20022;-82
2020/12/23 02:29:58;;;;;;;122.35;60.80;;;;;;;9.57;63.27;94414.28;4995536;28;20073;-82
2020/12/23 02:32:24;;;;;;;122.57;63.38;;;;;;;9.61;63.04;94409.25;4992210;28;20425;-81
2020/12/23 02:34:51;;;;;;;114.05;61.53;;;;;;;9.64;63.05;94409.50;4989857;28;20133;-82
2020/12/23 02:37:17;;;;;;;116.28;60.47;;;;;;;9.67;63.05;94410.81;4991893;28;20074;-82
2020/12/23 02:39:54;;;;;;;117.63;58.58;;;;;;;9.66;63.02;94406.59;4989865;28;20026;-82
2020/12/23 02:42:21;;;;;;;116.07;58.72;;;;;;;9.75;62.53;94410.25;4990961;28;20742;-82
2020/12/23 02:44:50;;;;;;;118.43;59.58;;;;;;;9.64;62.55;94398.94;4991121;28;20467;-82
2020/12/23 02:47:18;;;;;;;120.05;61.20;;;;;;;9.72;62.67;94403.69;4991987;28;20069;-82
2020/12/23 02:49:44;;;;;;;116.18;61.42;;;;;;;9.61;62.43;94383.66;4991031;28;20044;-82
2020/12/23 02:52:11;;;;;;;112.65;60.75;;;;;;;9.76;62.60;94407.38;4990249;28;20046;-82
2020/12/23 02:54:37;;;;;;;119.30;62.13;;;;;;;9.74;62.65;94392.84;4989032;28;20025;-82
2020/12/23 02:57:04;;;;;;;114.82;59.13;;;;;;;9.61;62.41;94378.38;4993611;28;20526;-82
2020/12/23 02:59:29;;;;;;;113.13;57.78;;;;;;;9.49;62.39;94365.47;4994585;28;20045;-82
2020/12/23 03:01:55;;;;;;;111.60;57.90;;;;;;;9.72;62.64;94395.78;4991878;28;20038;-82
2020/12/23 03:04:21;;;;;;;115.15;57.22;;;;;;;9.66;62.79;94386.28;4992933;28;20042;-82
2020/12/23 03:06:46;;;;;;;131.85;64.55;;;;;;;9.71;62.66;94399.47;4987060;28;20029;-82
2020/12/23 03:09:12;;;;;;;118.40;58.95;;;;;;;9.50;62.66;94388.16;4988049;28;20019;-82
2020/12/23 03:11:39;;;;;;;116.15;62.08;;;;;;;9.60;62.78;94402.38;4992068;28;20498;-82
2020/12/23 03:14:06;;;;;;;127.72;67.00;;;;;;;9.66;62.81;94407.38;4987985;28;20096;-82
2020/12/23 03:16:32;;;;;;;120.43;62.88;;;;;;;9.69;62.95;94421.88;4987579;28;20062;-81
2020/12/23 03:18:58;;;;;;;109.85;61.45;;;;;;;9.67;63.30;94419.53;4986491;28;20406;-82
2020/12/23 03:21:24;;;;;;;121.45;62.78;;;;;;;9.60;63.21;94418.22;4992431;28;20025;-82
2020/12/23 03:23:50;;;;;;;132.00;70.07;;;;;;;9.56;63.27;94423.25;4988830;28;20042;-83
2020/12/23 03:26:16;;;;;;;115.82;64.53;;;;;;;9.57;63.71;94415.06;4986976;28;20406;-82
2020/12/23 03:28:41;;;;;;;129.60;72.88;;;;;;;9.44;63.45;94393.69;4988134;28;20065;-82
2020/12/23 03:31:07;;;;;;;136.13;71.40;;;;;;;9.49;63.40;94398.97;4989996;28;20099;-82
2020/12/23 03:33:33;;;;;;;124.32;67.00;;;;;;;9.55;63.52;94411.09;4989981;28;20024;-82
2020/12/23 03:36:00;;;;;;;113.53;62.10;;;;;;;9.51;64.12;94394.22;4990768;28;20026;-83
2020/12/23 03:38:26;;;;;;;126.50;67.97;;;;;;;9.62;64.05;94411.63;4994038;28;20042;-82
2020/12/23 03:40:53;;;;;;;129.63;73.63;;;;;;;9.46;64.42;94396.88;4990199;28;20548;-82
2020/12/23 03:43:18;;;;;;;137.23;76.45;;;;;;;9.57;64.23;94416.91;4989755;28;20045;-82
2020/12/23 03:45:44;;;;;;;124.57;73.95;;;;;;;9.64;63.80;94419.25;4987885;28;20072;-82
2020/12/23 03:48:09;;;;;;;124.30;68.32;;;;;;;9.64;63.37;94404.22;4990688;28;20442;-82
2020/12/23 03:50:35;;;;;;;107.07;57.00;;;;;;;9.56;63.33;94402.13;4991773;28;20036;-82
2020/12/23 03:53:01;;;;;;;99.40;49.85;;;;;;;9.62;63.18;94421.38;4988398;28;20053;-82
2020/12/23 03:55:27;;;;;;;108.82;55.65;;;;;;;9.56;63.39;94429.31;4989327;28;20368;-82
2020/12/23 03:57:52;;;;;;;108.40;54.10;;;;;;;9.51;63.47;94415.34;4986254;28;20065;-82
2020/12/23 04:00:18;;;;;;;99.25;53.63;;;;;;;9.51;63.57;94410.06;4993066;28;20239;-82
2020/12/23 04:02:44;;;;;;;108.35;56.58;;;;;;;9.55;63.58;94419.00;4986718;28;20030;-82
2020/12/23 04:05:09;;;;;;;102.15;56.30;;;;;;;9.55;63.87;94426.94;4992427;28;20659;-82
2020/12/23 04:07:35;;;;;;;114.20;58.53;;;;;;;9.52;63.98;94415.06;4990557;28;20184;-82
2020/12/23 04:10:03;;;;;;;111.03;57.65;;;;;;;9.57;63.63;94411.63;4985799;28;20251;-82
2020/12/23 04:12:38;;;;;;;110.38;61.22;;;;;;;9.58;63.57;94423.75;4968438;28;20569;-83
2020/12/23 04:15:08;;;;;;;123.40;66.43;;;;;;;9.52;63.65;94406.38;4991297;28;20471;-82
2020/12/23 04:17:34;;;;;;;125.28;67.10;;;;;;;9.58;63.77;94431.66;4991071;28;20081;-81
2020/12/23 04:20:00;;;;;;;118.68;67.43;;;;;;;9.53;63.53;94421.13;4984155;28;20053;-83
2020/12/23 04:22:29;;;;;;;131.35;68.80;;;;;;;9.58;63.63;94427.19;4988870;28;20525;-82
2020/12/23 04:24:56;;;;;;;131.20;70.47;;;;;;;9.41;64.06;94400.31;4986963;28;20054;-82
2020/12/23 04:27:22;;;;;;;123.57;66.78;;;;;;;9.62;63.66;94432.75;4992197;28;20029;-82
2020/12/23 04:29:48;;;;;;;126.57;68.00;;;;;;;9.62;63.53;94422.19;4988165;28;20046;-82
2020/12/23 04:32:13;;;;;;;108.88;59.97;;;;;;;9.49;63.71;94404.25;4983042;28;20613;-80
2020/12/23 04:34:39;;;;;;;111.32;61.28;;;;;;;9.49;63.72;94399.75;4988684;28;20034;-81
2020/12/23 04:37:04;;;;;;;109.13;58.08;;;;;;;9.68;63.67;94426.38;4992393;28;20044;-81
2020/12/23 04:39:30;;;;;;;116.60;61.28;;;;;;;9.72;63.81;94440.63;4991266;28;20026;-81
2020/12/23 04:41:55;;;;;;;112.45;59.03;;;;;;;9.73;63.78;94436.13;4993944;28;20490;-81
2020/12/23 04:44:21;;;;;;;107.93;60.35;;;;;;;9.65;64.35;94437.47;5005039;28;20791;-80
2020/12/23 04:46:48;;;;;;;115.82;60.45;;;;;;;9.54;64.24;94431.41;4991859;28;20057;-81
2020/12/23 04:49:23;;;;;;;112.40;63.92;;;;;;;9.70;64.50;94450.66;4995031;28;20045;-80
2020/12/23 04:51:55;;;;;;;111.85;58.58;;;;;;;9.74;64.63;94441.16;4990843;28;20090;-80
2020/12/23 04:54:22;;;;;;;107.32;58.53;;;;;;;9.68;64.03;94434.28;4992068;28;20034;-80
2020/12/23 04:56:48;;;;;;;104.72;58.08;;;;;;;9.59;63.65;94430.63;4994873;28;20041;-81
2020/12/23 04:59:14;;;;;;;98.88;55.38;;;;;;;9.65;63.73;94426.91;4991540;28;20140;-81
2020/12/23 05:01:40;;;;;;;98.47;51.35;;;;;;;9.67;63.52;94416.09;4985144;28;20039;-81
2020/12/23 05:04:06;;;;;;;95.78;56.53;;;;;;;9.58;63.79;94405.28;4978521;28;20534;-80
2020/12/23 05:06:36;;;;;;;90.07;50.15;;;;;;;9.37;64.99;94388.72;4978860;28;20038;-81
2020/12/23 05:09:04;;;;;;;238.48;110.80;;;;;;;9.46;65.10;94402.16;4980786;28;20037;-81
2020/12/23 05:11:32;;;;;;;94.28;49.50;;;;;;;9.47;65.12;94403.72;4987059;28;20045;-80
2020/12/23 05:14:03;;;;;;;100.55;53.30;;;;;;;9.65;64.94;94437.47;4982083;28;20679;-81
2020/12/23 05:16:28;;;;;;;92.93;48.38;;;;;;;9.63;64.49;94421.09;4973226;28;20120;-81
2020/12/23 05:18:58;;;;;;;102.22;50.95;;;;;;;9.73;64.20;94436.91;4972354;28;20398;-81
2020/12/23 05:21:24;;;;;;;96.05;47.33;;;;;;;9.68;64.28;94423.72;4995474;28;20112;-81
2020/12/23 05:23:52;;;;;;;82.28;46.03;;;;;;;9.74;64.12;94433.22;4992791;28;20066;-81
2020/12/23 05:26:17;;;;;;;88.70;46.10;;;;;;;9.79;64.29;94432.41;4991040;28;20079;-81
2020/12/23 05:28:44;;;;;;;85.32;46.30;;;;;;;9.76;63.72;94435.59;4976502;28;20042;-81
2020/12/23 05:31:12;;;;;;;89.88;49.47;;;;;;;9.77;64.53;94440.63;4977151;28;20044;-81
2020/12/23 05:33:40;;;;;;;132.68;63.78;;;;;;;9.76;64.71;94417.94;4989134;28;20030;-82
2020/12/23 05:36:14;;;;;;;82.82;46.45;;;;;;;9.85;64.07;94436.63;4992089;28;20025;-81
2020/12/23 05:38:40;;;;;;;83.22;42.65;;;;;;;9.78;63.60;94413.16;4985701;28;20866;-81
2020/12/23 05:41:14;;;;;;;88.53;48.30;;;;;;;9.90;64.48;94440.06;4984806;28;20034;-81
2020/12/23 05:43:40;;;;;;;87.90;45.63;;;;;;;9.91;64.14;94435.56;4987674;28;20045;-80
2020/12/23 05:46:07;;;;;;;87.18;45.40;;;;;;;9.92;64.94;94443.22;4994128;28;20495;-81
2020/12/23 05:48:35;;;;;;;82.95;45.58;;;;;;;9.83;64.52;94433.47;4988926;28;20230;-81
2020/12/23 05:51:01;;;;;;;84.28;46.35;;;;;;;9.88;64.38;94444.81;4992803;28;20882;-82
2020/12/23 05:53:28;;;;;;;90.93;43.58;;;;;;;9.93;64.10;94455.34;4992757;28;20052;-81
2020/12/23 05:55:55;;;;;;;80.82;44.13;;;;;;;9.90;63.72;94449.81;4992975;28;20038;-81
2020/12/23 05:58:21;;;;;;;82.85;43.03;;;;;;;9.92;63.62;94453.75;4977636;28;20104;-81
2020/12/23 06:00:51;;;;;;;89.93;43.75;;;;;;;9.97;64.03;94472.25;4989352;28;20026;-81
2020/12/23 06:03:31;;;;;;;81.40;43.33;;;;;;;10.01;63.62;94472.50;4987329;28;20029;-81
2020/12/23 06:06:02;;;;;;;87.88;41.83;;;;;;;9.93;63.33;94458.00;4995907;28;20042;-81
2020/12/23 06:08:36;;;;;;;78.68;43.75;;;;;;;9.92;63.81;94447.72;4998502;28;20046;-80
2020/12/23 06:11:28;;;;;;;77.88;42.92;;;;;;;10.04;64.06;94474.59;4980042;28;20609;-81
2020/12/23 06:13:56;;;;;;;79.03;43.72;;;;;;;10.08;64.18;94478.28;4979395;28;20708;-81
2020/12/23 06:16:30;;;;;;;80.82;41.65;;;;;;;10.10;64.09;94464.81;4994148;28;20049;-81
2020/12/23 06:19:00;;;;;;;83.93;43.10;;;;;;;10.07;63.29;94466.13;4989876;28;20054;-81
2020/12/23 06:21:26;;;;;;;86.35;48.95;;;;;;;10.08;64.08;94466.94;4980618;28;20034;-81
2020/12/23 06:24:01;;;;;;;120.95;63.05;;;;;;;10.12;64.45;94479.34;4992145;28;20087;-81
2020/12/23 06:26:30;;;;;;;128.13;63.40;;;;;;;10.14;64.25;94473.78;4989986;28;20138;-81
2020/12/23 06:29:01;;;;;;;132.70;74.75;;;;;;;10.05;64.73;94473.56;4991409;28;20073;-81
2020/12/23 06:31:30;;;;;;;122.88;64.00;;;;;;;10.07;64.68;94471.41;4973105;28;20383;-81
2020/12/23 06:33:58;;;;;;;110.60;57.80;;;;;;;10.13;64.61;94465.06;4984949;28;20045;-81
2020/12/23 06:36:31;;;;;;;98.70;54.28;;;;;;;10.13;64.04;94464.28;4973603;28;20570;-81
2020/12/23 06:39:18;;;;;;;84.55;46.13;;;;;;;10.23;63.39;94488.06;4992158;28;20057;-81
2020/12/23 06:41:48;;;;;;;79.22;44.30;;;;;;;10.23;63.40;94485.41;4992989;28;20050;-81
2020/12/23 06:44:14;;;;;;;88.88;48.53;;;;;;;10.29;63.94;94484.34;4990814;28;20046;-81
2020/12/23 06:46:58;;;;;;;80.68;44.00;;;;;;;10.32;63.64;94481.94;4990527;28;20641;-81
2020/12/23 06:49:41;;;;;;;80.18;42.67;;;;;;;10.33;63.44;94482.72;4996485;28;20046;-81
2020/12/23 06:52:21;;;;;;;87.82;43.83;;;;;;;10.35;64.00;94481.41;4991206;28;20112;-81
2020/12/23 06:54:48;;;;;;;73.75;41.75;;;;;;;10.35;63.53;94481.41;4993000;28;20025;-81
2020/12/23 06:57:35;;;;;;;84.43;46.90;;;;;;;10.45;62.44;94485.88;4993551;28;20033;-81
2020/12/23 07:00:03;;;;;;;76.05;44.13;;;;;;;10.45;63.01;94482.44;4995052;28;20411;-81
2020/12/23 07:02:40;;;;;;;85.50;43.35;;;;;;;10.53;63.09;94493.22;4988965;28;20050;-81
2020/12/23 07:05:07;;;;;;;80.55;41.55;;;;;;;10.55;62.82;94487.69;4992206;28;20048;-81
2020/12/23 07:07:43;;;;;;;77.20;43.53;;;;;;;10.66;62.52;94495.28;4990751;28;20049;-81
2020/12/23 07:10:10;;;;;;;72.20;43.20;;;;;;;10.68;62.37;94511.66;4993021;28;20034;-81
2020/12/23 07:12:59;;;;;;;121.97;66.70;;;;;;;10.72;62.24;94510.06;4990178;28;20528;-81
2020/12/23 07:15:29;;;;;;;82.68;43.00;;;;;;;10.73;62.23;94509.00;4992799;28;20181;-81
2020/12/23 07:17:57;;;;;;;79.95;44.22;;;;;;;10.74;62.48;94515.09;4992132;28;20061;-81
2020/12/23 07:20:24;;;;;;;90.22;44.63;;;;;;;10.79;62.17;94515.84;4975516;28;20046;-81
2020/12/23 07:22:52;;;;;;;79.65;45.80;;;;;;;10.70;62.03;94506.88;4979882;28;20121;-81
2020/12/23 07:25:23;;;;;;;78.30;42.25;;;;;;;10.82;62.51;94525.88;4992375;28;20038;-81
2020/12/23 07:27:54;;;;;;;81.82;45.22;;;;;;;10.83;62.33;94508.97;4990435;28;20692;-81
2020/12/23 07:30:20;;;;;;;81.43;45.15;;;;;;;10.88;61.45;94507.34;4991850;28;20060;-81
2020/12/23 07:33:17;;;;;;;83.78;44.92;;;;;;;10.88;61.81;94486.97;4993622;28;20042;-82
2020/12/23 07:35:45;;;;;;;85.65;49.30;;;;;;;11.00;61.55;94489.28;4977764;28;20124;-80
2020/12/23 07:38:12;;;;;;;91.80;49.13;;;;;;;11.10;61.81;94505.09;4979558;28;20485;-81
2020/12/23 07:40:37;;;;;;;81.07;48.00;;;;;;;11.10;61.85;94500.59;4988834;28;21404;-81
2020/12/23 07:43:03;;;;;;;84.65;47.83;;;;;;;11.13;62.06;94493.97;4988033;28;20671;-81
2020/12/23 07:45:30;;;;;;;97.20;50.78;;;;;;;11.23;61.21;94499.22;4988509;28;20033;-82
2020/12/23 07:48:04;;;;;;;92.45;50.58;;;;;;;11.40;61.15;94514.69;4994568;28;20029;-81
2020/12/23 07:50:34;;;;;;;88.68;50.03;;;;;;;11.44;60.61;94505.13;4991027;28;20146;-82
2020/12/23 07:53:17;;;;;;;106.32;51.58;;;;;;;11.49;60.88;94513.81;5004169;28;20057;-79
2020/12/23 07:55:48;;;;;;;97.32;54.22;;;;;;;11.33;60.75;94488.56;4989841;28;20050;-80
2020/12/23 07:58:15;;;;;;;102.32;59.13;;;;;;;11.38;60.84;94491.16;4990666;28;20129;-81
2020/12/23 08:00:44;;;;;;;101.78;58.45;;;;;;;11.53;60.49;94498.19;4991600;28;20093;-82
2020/12/23 08:03:10;;;;;;;99.70;57.97;;;;;;;11.75;60.51;94506.50;4987904;28;20037;-81
2020/12/23 08:05:36;;;;;;;100.13;55.20;;;;;;;11.83;60.22;94507.75;4980695;28;20037;-81
2020/12/23 08:08:02;;;;;;;88.65;47.75;;;;;;;11.76;60.39;94481.59;4988934;28;20376;-82
2020/12/23 08:10:28;;;;;;;89.32;48.78;;;;;;;11.86;60.17;94486.03;4991717;28;20092;-81
2020/12/23 08:12:58;;;;;;;97.22;56.90;;;;;;;11.96;60.44;94496.53;4985948;28;20400;-81
2020/12/23 08:15:27;;;;;;;89.20;52.92;;;;;;;12.12;60.19;94511.97;4993032;28;20104;-82
2020/12/23 08:18:10;;;;;;;47.20;28.13;;;;;;;12.14;60.90;94506.41;4989647;28;20058;-81
2020/12/23 08:20:36;;;;;;;51.22;28.20;;;;;;;12.16;61.18;94504.28;4990881;28;20532;-81
2020/12/23 08:23:02;;;;;;;80.70;42.83;;;;;;;12.19;61.03;94509.00;4989232;28;20046;-81
2020/12/23 08:25:29;;;;;;;94.95;49.65;;;;;;;12.25;59.48;94507.88;4992915;28;20071;-80
2020/12/23 08:27:59;;;;;;;86.97;48.17;;;;;;;12.32;58.93;94508.31;4989033;28;20545;-81
2020/12/23 08:30:27;;;;;;;87.75;49.13;;;;;;;12.41;59.27;94514.59;4992960;28;20490;-82
2020/12/23 08:32:57;;;;;;;81.82;45.65;;;;;;;12.49;59.08;94521.16;4988117;28;20085;-81
2020/12/23 08:35:34;;;;;;;101.03;46.35;;;;;;;12.63;58.82;94519.38;4987018;28;20433;-82
2020/12/23 08:37:59;;;;;;;26.17;15.55;;;;;;;12.69;60.10;94505.00;4987155;28;20424;-81
2020/12/23 08:40:25;;;;;;;10.80;8.15;;;;;;;12.75;59.82;94487.16;4993159;28;20042;-82
2020/12/23 08:42:54;;;;;;;48.65;21.95;;;;;;;13.11;59.12;94495.41;4986743;28;20077;-81
2020/12/23 08:45:30;;;;;;;12.43;8.57;;;;;;;13.28;58.56;94491.25;5005979;28;20474;-81
2020/12/23 08:47:58;;;;;;;11.05;7.30;;;;;;;13.39;57.74;94487.34;4992398;28;20042;-83
2020/12/23 08:50:26;;;;;;;16.10;12.23;;;;;;;13.44;57.44;94462.56;4991517;28;20124;-82
2020/12/23 08:52:54;;;;;;;14.85;9.23;;;;;;;13.77;56.91;94482.75;4987057;28;20038;-82
2020/12/23 08:55:23;;;;;;;20.20;10.23;;;;;;;13.89;56.34;94458.38;4987291;28;20058;-81
2020/12/23 08:58:05;;;;;;;16.38;9.65;;;;;;;14.15;55.45;94456.84;4978617;28;20057;-82
2020/12/23 09:00:32;;;;;;;12.13;6.93;;;;;;;14.35;54.37;94462.84;4989805;28;20494;-82
2020/12/23 09:02:57;;;;;;;10.77;6.30;;;;;;;14.38;54.53;94443.66;4989968;28;20546;-83
2020/12/23 09:05:26;;;;;;;10.00;5.25;;;;;;;14.53;53.47;94452.13;4990055;28;20061;-81
2020/12/23 09:08:05;;;;;;;8.60;5.82;;;;;;;14.59;53.36;94461.59;4986882;28;20045;-81
2020/12/23 09:10:31;;;;;;;9.57;4.95;;;;;;;14.40;53.09;94425.56;4991500;28;20076;-81
2020/12/23 09:13:12;;;;;;;6.88;5.00;;;;;;;14.53;53.16;94424.75;4991816;28;20228;-80
2020/12/23 09:15:39;;;;;;;8.07;4.93;;;;;;;14.51;52.92;94446.34;4989101;28;20032;-82
2020/12/23 09:18:12;;;;;;;8.82;4.63;;;;;;;14.38;52.94;94419.75;4993095;28;20495;-84
2020/12/23 09:20:39;;;;;;;8.82;5.50;;;;;;;14.41;53.47;94427.16;4980277;28;20038;-83
2020/12/23 09:23:06;;;;;;;9.75;6.30;;;;;;;14.69;53.21;94439.31;4993308;28;20080;-83
2020/12/23 09:25:33;;;;;;;6.95;5.10;;;;;;;14.75;52.58;94438.13;4992891;28;20054;-81
2020/12/23 09:28:09;;;;;;;10.52;5.55;;;;;;;14.73;52.80;94445.63;4991375;28;20054;-81
2020/12/23 09:30:43;;;;;;;6.25;4.65;;;;;;;14.74;52.38;94447.19;4992662;28;20039;-81
2020/12/23 09:33:11;;;;;;;8.40;5.50;;;;;;;14.59;53.00;94436.88;4997078;28;20095;-82
2020/12/23 09:35:38;;;;;;;6.95;5.00;;;;;;;14.51;52.51;94432.25;4996872;28;20038;-82
2020/12/23 09:38:24;;;;;;;6.75;4.97;;;;;;;14.52;52.52;94436.47;4996656;28;20091;-84
2020/12/23 09:40:50;;;;;;;;;;;;;;;14.52;52.75;94439.13;4993289;28;20041;-82
2020/12/23 09:43:21;;;;;;;7.20;5.05;;;;;;;14.42;52.76;94418.84;4992687;28;19917;-82
2020/12/23 09:45:51;;;;;;;10.90;5.75;;;;;;;14.52;53.13;94433.81;4993076;28;20030;-84
2020/12/23 09:48:18;;;;;;;6.45;4.72;;;;;;;14.61;52.98;94437.38;4996589;28;20120;-81
2020/12/23 09:50:44;;;;;;;9.10;5.72;;;;;;;14.68;52.57;94427.09;4993129;28;20568;-83
2020/12/23 09:53:11;;;;;;;7.93;4.13;;;;;;;14.74;52.46;94412.63;4993552;28;20037;-83
2020/12/23 09:55:39;;;;;;;4.90;4.25;;;;;;;14.86;52.16;94428.84;4993378;28;20099;-84
2020/12/23 09:58:05;;;;;;;6.22;3.97;;;;;;;14.76;52.11;94413.09;4993839;28;20046;-83
2020/12/23 10:00:31;;;;;;;6.97;5.20;;;;;;;14.84;52.06;94425.69;4992178;28;20077;-82
2020/12/23 10:02:56;;;;;;;5.10;4.00;;;;;;;14.71;51.47;94405.22;4995576;28;20042;-83
2020/12/23 10:05:21;;;;;;;5.60;4.18;;;;;;;14.70;51.92;94414.31;4992106;28;20058;-83
2020/12/23 10:07:47;;;;;;;5.47;4.40;;;;;;;14.97;51.69;94419.53;4996032;28;20038;-83
2020/12/23 10:10:13;;;;;;;5.55;4.03;;;;;;;14.98;51.76;94389.19;4992520;28;20076;-82
2020/12/23 10:12:38;;;;;;;7.43;4.40;;;;;;;15.05;51.12;94402.84;4992415;28;20030;-85
2020/12/23 10:15:06;;;;;;;6.45;4.05;;;;;;;15.16;51.24;94400.75;4999024;28;20045;-81
2020/12/23 10:17:32;;;;;;;4.30;3.35;;;;;;;15.18;50.90;94393.25;4991706;28;20061;-82
2020/12/23 10:19:57;;;;;;;4.95;3.72;;;;;;;15.14;51.08;94389.63;4989973;28;20117;-84
2020/12/23 10:22:23;;;;;;;10.07;6.15;;;;;;;15.28;50.70;94401.00;4994559;28;21078;-82
2020/12/23 10:24:49;;;;;;;10.75;6.60;;;;;;;15.31;50.18;94381.75;4992599;28;20046;-85
2020/12/23 10:27:14;;;;;;;12.55;7.65;;;;;;;15.43;50.09;94394.53;4993175;28;20029;-84
2020/12/23 10:29:40;;;;;;;9.77;5.70;;;;;;;15.35;50.09;94376.59;4991679;28;20181;-82
2020/12/23 10:32:05;;;;;;;9.73;3.92;;;;;;;15.30;50.24;94376.72;4987742;28;20793;-82
2020/12/23 10:34:30;;;;;;;8.13;3.20;;;;;;;15.29;49.98;94377.84;4987853;28;20058;-82
2020/12/23 10:36:56;;;;;;;5.80;4.03;;;;;;;15.42;50.22;94392.94;4990119;28;20128;-83
2020/12/23 10:39:22;;;;;;;6.43;4.05;;;;;;;15.31;49.68;94365.78;4994003;28;20457;-83
2020/12/23 10:41:53;;;;;;;3.80;3.40;;;;;;;15.39;50.13;94366.94;4991023;28;20109;-84
2020/12/23 10:44:19;;;;;;;3.85;2.92;;;;;;;15.47;50.00;94352.88;4992143;28;20058;-82
2020/12/23 10:46:44;;;;;;;5.43;3.10;;;;;;;15.67;49.67;94351.59;4990605;28;20049;-82
2020/12/23 10:49:10;;;;;;;5.28;3.78;;;;;;;15.92;49.26;94357.03;4991814;28;20062;-82
2020/12/23 10:51:35;;;;;;;3.47;3.00;;;;;;;16.31;48.34;94366.09;4991187;28;20056;-83
2020/12/23 10:54:01;;;;;;;4.25;3.08;;;;;;;16.22;48.04;94335.97;4993383;28;20487;-85
2020/12/23 10:56:26;;;;;;;4.43;3.00;;;;;;;16.47;47.90;94367.22;4989280;28;20076;-82
2020/12/23 10:58:52;;;;;;;4.90;3.53;;;;;;;16.63;47.57;94359.59;4991956;28;20112;-84
2020/12/23 11:01:19;;;;;;;5.15;3.42;;;;;;;16.77;47.54;94358.34;4991880;28;20052;-85
2020/12/23 11:03:45;;;;;;;5.13;3.03;;;;;;;16.87;47.25;94354.59;4992190;28;20022;-85
2020/12/23 11:06:15;;;;;;;4.20;2.90;;;;;;;16.93;46.76;94345.34;4992815;28;20033;-81
2020/12/23 11:08:41;;;;;;;4.95;2.67;;;;;;;17.17;46.01;94361.66;4992026;28;20128;-82
2020/12/23 11:11:07;;;;;;;3.33;2.65;;;;;;;16.97;46.04;94362.28;4990394;28;20053;-82
2020/12/23 11:13:32;;;;;;;5.22;3.15;;;;;;;16.89;46.55;94366.53;4992569;28;20536;-81
2020/12/23 11:15:58;;;;;;;6.03;3.25;;;;;;;16.77;46.61;94370.91;4992497;28;20566;-82
2020/12/23 11:18:23;;;;;;;6.47;2.92;;;;;;;16.75;46.45;94370.44;4993557;28;20054;-82
2020/12/23 11:20:49;;;;;;;6.40;3.47;;;;;;;16.65;47.02;94360.06;4994079;28;20044;-81
2020/12/23 11:23:24;;;;;;;3.22;2.92;;;;;;;16.67;46.77;94369.34;4978713;28;20054;-82
2020/12/23 11:25:50;;;;;;;6.10;3.92;;;;;;;16.63;46.48;94352.38;4991402;28;20038;-81